EDC weather

Austin Executive Airport
Austin, Texas, United States

Public forecast

Using degrees Fahrenheit for public forecast. Weather courtesy of forecast.io.

METAR (pilot weather report)

Closest report is Austin Executive Airport, 0.0 nm (0.0 km) ENE. Retrieved 2019/06/15 19:35 UTC (21 minutes ago):

KEDC 151935Z AUTO 20011G18KT 10SM FEW042 33/22 A2987 RMK AO2

TAF (pilot weather forecast)

Closest forecast is Austin Bergstrom International Airport, 13.3 nm (24.7 km) SSW. Retrieved 2019/06/15 18:22 UTC (2 hours ago):

TAF KAUS 151720Z 1518/1624 19014G24KT P6SM SCT045 FM160100 15013KT P6SM SCT250 FM160600 18007KT P6SM BKN020 FM161600 17012KT P6SM SCT020